sensor_id;sensor_type;location;lat;lon;timestamp;P1;durP1;ratioP1;P2;durP2;ratioP2
16270;SDS011;8243;49.048;8.396;2022-08-19T00:00:17;17.97;;;16.13;;
16270;SDS011;8243;49.048;8.396;2022-08-19T00:02:43;17.70;;;16.00;;
16270;SDS011;8243;49.048;8.396;2022-08-19T00:05:11;18.00;;;16.30;;
16270;SDS011;8243;49.048;8.396;2022-08-19T00:07:38;17.33;;;15.63;;
16270;SDS011;8243;49.048;8.396;2022-08-19T00:10:05;17.70;;;16.00;;
16270;SDS011;8243;49.048;8.396;2022-08-19T00:12:31;19.03;;;17.03;;
16270;SDS011;8243;49.048;8.396;2022-08-19T00:14:57;19.90;;;18.00;;
16270;SDS011;8243;49.048;8.396;2022-08-19T00:17:23;19.93;;;17.30;;
16270;SDS011;8243;49.048;8.396;2022-08-19T00:19:48;19.80;;;17.80;;
16270;SDS011;8243;49.048;8.396;2022-08-19T00:22:14;18.93;;;17.13;;
16270;SDS011;8243;49.048;8.396;2022-08-19T00:24:41;19.00;;;17.10;;
16270;SDS011;8243;49.048;8.396;2022-08-19T00:27:08;19.63;;;17.77;;
16270;SDS011;8243;49.048;8.396;2022-08-19T00:29:34;19.93;;;17.40;;
16270;SDS011;8243;49.048;8.396;2022-08-19T00:31:59;19.03;;;17.23;;
16270;SDS011;8243;49.048;8.396;2022-08-19T00:34:25;19.53;;;17.60;;
16270;SDS011;8243;49.048;8.396;2022-08-19T00:36:54;18.27;;;16.47;;
16270;SDS011;8243;49.048;8.396;2022-08-19T00:39:21;18.40;;;16.60;;
16270;SDS011;8243;49.048;8.396;2022-08-19T00:41:47;17.70;;;16.20;;
16270;SDS011;8243;49.048;8.396;2022-08-19T00:46:49;17.47;;;15.87;;
16270;SDS011;8243;49.048;8.396;2022-08-19T00:51:55;19.00;;;17.17;;
16270;SDS011;8243;49.048;8.396;2022-08-19T00:54:26;18.57;;;16.87;;
16270;SDS011;8243;49.048;8.396;2022-08-19T00:56:53;18.33;;;16.57;;
16270;SDS011;8243;49.048;8.396;2022-08-19T00:59:19;18.53;;;16.73;;
16270;SDS011;8243;49.048;8.396;2022-08-19T01:01:45;17.47;;;15.83;;
16270;SDS011;8243;49.048;8.396;2022-08-19T01:04:12;18.70;;;16.83;;
16270;SDS011;8243;49.048;8.396;2022-08-19T01:06:38;18.90;;;17.10;;
16270;SDS011;8243;49.048;8.396;2022-08-19T01:09:05;18.27;;;16.60;;
16270;SDS011;8243;49.048;8.396;2022-08-19T01:11:33;17.60;;;15.90;;
16270;SDS011;8243;49.048;8.396;2022-08-19T01:14:04;17.93;;;16.33;;
16270;SDS011;8243;49.048;8.396;2022-08-19T01:16:30;17.87;;;16.27;;
16270;SDS011;8243;49.048;8.396;2022-08-19T01:18:57;19.27;;;17.33;;
16270;SDS011;8243;49.048;8.396;2022-08-19T01:21:28;16.33;;;14.83;;
16270;SDS011;8243;49.048;8.396;2022-08-19T01:23:59;18.00;;;16.23;;
16270;SDS011;8243;49.048;8.396;2022-08-19T01:26:25;18.33;;;16.60;;
16270;SDS011;8243;49.048;8.396;2022-08-19T01:28:54;18.57;;;16.87;;
16270;SDS011;8243;49.048;8.396;2022-08-19T01:31:23;18.00;;;16.30;;
16270;SDS011;8243;49.048;8.396;2022-08-19T01:33:51;17.73;;;16.03;;
16270;SDS011;8243;49.048;8.396;2022-08-19T01:36:23;19.37;;;17.57;;
16270;SDS011;8243;49.048;8.396;2022-08-19T01:39:11;18.37;;;16.57;;
16270;SDS011;8243;49.048;8.396;2022-08-19T01:41:39;17.80;;;16.00;;
16270;SDS011;8243;49.048;8.396;2022-08-19T01:44:05;18.47;;;16.77;;
16270;SDS011;8243;49.048;8.396;2022-08-19T01:46:32;17.63;;;15.80;;
16270;SDS011;8243;49.048;8.396;2022-08-19T01:48:57;18.37;;;16.57;;
16270;SDS011;8243;49.048;8.396;2022-08-19T01:51:23;17.53;;;15.93;;
16270;SDS011;8243;49.048;8.396;2022-08-19T01:53:49;18.43;;;16.83;;
16270;SDS011;8243;49.048;8.396;2022-08-19T01:56:16;18.20;;;16.67;;
16270;SDS011;8243;49.048;8.396;2022-08-19T01:58:44;18.50;;;16.80;;
16270;SDS011;8243;49.048;8.396;2022-08-19T02:01:15;17.40;;;15.60;;
16270;SDS011;8243;49.048;8.396;2022-08-19T02:03:41;17.70;;;16.10;;
16270;SDS011;8243;49.048;8.396;2022-08-19T02:06:07;18.67;;;16.97;;
16270;SDS011;8243;49.048;8.396;2022-08-19T02:08:34;18.60;;;16.97;;
16270;SDS011;8243;49.048;8.396;2022-08-19T02:11:02;18.90;;;17.20;;
16270;SDS011;8243;49.048;8.396;2022-08-19T02:13:28;18.30;;;16.60;;
16270;SDS011;8243;49.048;8.396;2022-08-19T02:15:54;18.60;;;16.27;;
16270;SDS011;8243;49.048;8.396;2022-08-19T02:18:20;17.17;;;15.57;;
16270;SDS011;8243;49.048;8.396;2022-08-19T02:20:46;19.13;;;17.33;;
16270;SDS011;8243;49.048;8.396;2022-08-19T02:23:13;19.57;;;17.87;;
16270;SDS011;8243;49.048;8.396;2022-08-19T02:25:40;19.70;;;17.90;;
16270;SDS011;8243;49.048;8.396;2022-08-19T02:28:06;19.13;;;17.53;;
16270;SDS011;8243;49.048;8.396;2022-08-19T02:30:32;18.93;;;17.23;;
16270;SDS011;8243;49.048;8.396;2022-08-19T02:32:58;20.47;;;18.37;;
16270;SDS011;8243;49.048;8.396;2022-08-19T02:38:30;18.97;;;17.27;;
16270;SDS011;8243;49.048;8.396;2022-08-19T02:41:06;19.90;;;18.13;;
16270;SDS011;8243;49.048;8.396;2022-08-19T02:43:37;20.20;;;18.40;;
16270;SDS011;8243;49.048;8.396;2022-08-19T02:48:48;19.80;;;17.83;;
16270;SDS011;8243;49.048;8.396;2022-08-19T02:51:24;19.47;;;17.63;;
16270;SDS011;8243;49.048;8.396;2022-08-19T02:53:54;18.93;;;16.93;;
16270;SDS011;8243;49.048;8.396;2022-08-19T02:56:20;18.93;;;17.03;;
16270;SDS011;8243;49.048;8.396;2022-08-19T02:58:46;18.47;;;16.77;;
16270;SDS011;8243;49.048;8.396;2022-08-19T03:01:20;20.43;;;18.50;;
16270;SDS011;8243;49.048;8.396;2022-08-19T03:03:48;20.17;;;18.17;;
16270;SDS011;8243;49.048;8.396;2022-08-19T03:06:14;20.50;;;18.60;;
16270;SDS011;8243;49.048;8.396;2022-08-19T03:08:41;20.23;;;18.33;;
16270;SDS011;8243;49.048;8.396;2022-08-19T03:11:16;20.80;;;18.70;;
16270;SDS011;8243;49.048;8.396;2022-08-19T03:13:44;20.57;;;18.60;;
16270;SDS011;8243;49.048;8.396;2022-08-19T03:16:10;19.77;;;17.97;;
16270;SDS011;8243;49.048;8.396;2022-08-19T03:18:37;19.17;;;17.47;;
16270;SDS011;8243;49.048;8.396;2022-08-19T03:21:02;19.13;;;17.27;;
16270;SDS011;8243;49.048;8.396;2022-08-19T03:23:28;20.67;;;18.73;;
16270;SDS011;8243;49.048;8.396;2022-08-19T03:25:54;20.93;;;19.03;;
16270;SDS011;8243;49.048;8.396;2022-08-19T03:28:20;22.63;;;20.63;;
16270;SDS011;8243;49.048;8.396;2022-08-19T03:30:57;20.80;;;18.93;;
16270;SDS011;8243;49.048;8.396;2022-08-19T03:33:26;21.67;;;19.70;;
16270;SDS011;8243;49.048;8.396;2022-08-19T03:36:06;22.13;;;20.03;;
16270;SDS011;8243;49.048;8.396;2022-08-19T03:38:34;22.67;;;20.43;;
16270;SDS011;8243;49.048;8.396;2022-08-19T03:41:08;21.53;;;19.53;;
16270;SDS011;8243;49.048;8.396;2022-08-19T03:43:37;20.10;;;18.00;;
16270;SDS011;8243;49.048;8.396;2022-08-19T03:46:05;22.97;;;20.87;;
16270;SDS011;8243;49.048;8.396;2022-08-19T03:48:36;22.63;;;20.37;;
16270;SDS011;8243;49.048;8.396;2022-08-19T03:51:03;22.83;;;20.70;;
16270;SDS011;8243;49.048;8.396;2022-08-19T03:53:30;22.90;;;20.80;;
16270;SDS011;8243;49.048;8.396;2022-08-19T03:55:57;24.43;;;22.13;;
16270;SDS011;8243;49.048;8.396;2022-08-19T03:58:25;22.90;;;20.57;;
16270;SDS011;8243;49.048;8.396;2022-08-19T04:00:53;24.83;;;22.27;;
16270;SDS011;8243;49.048;8.396;2022-08-19T04:03:20;24.77;;;22.43;;
16270;SDS011;8243;49.048;8.396;2022-08-19T04:05:46;25.03;;;22.63;;
16270;SDS011;8243;49.048;8.396;2022-08-19T04:08:12;25.70;;;23.30;;
16270;SDS011;8243;49.048;8.396;2022-08-19T04:10:38;26.37;;;23.80;;
16270;SDS011;8243;49.048;8.396;2022-08-19T04:13:05;25.33;;;22.80;;
16270;SDS011;8243;49.048;8.396;2022-08-19T04:15:32;25.23;;;22.70;;
16270;SDS011;8243;49.048;8.396;2022-08-19T04:18:04;26.87;;;24.13;;
16270;SDS011;8243;49.048;8.396;2022-08-19T04:20:32;26.03;;;23.53;;
16270;SDS011;8243;49.048;8.396;2022-08-19T04:23:03;25.97;;;23.37;;
16270;SDS011;8243;49.048;8.396;2022-08-19T04:25:33;26.77;;;23.97;;
16270;SDS011;8243;49.048;8.396;2022-08-19T04:28:04;26.33;;;23.83;;
16270;SDS011;8243;49.048;8.396;2022-08-19T04:30:29;26.50;;;24.00;;
16270;SDS011;8243;49.048;8.396;2022-08-19T04:32:55;26.57;;;24.10;;
16270;SDS011;8243;49.048;8.396;2022-08-19T04:35:20;26.93;;;24.43;;
16270;SDS011;8243;49.048;8.396;2022-08-19T04:37:46;26.17;;;23.57;;
16270;SDS011;8243;49.048;8.396;2022-08-19T04:40:12;27.13;;;24.63;;
16270;SDS011;8243;49.048;8.396;2022-08-19T04:42:56;27.63;;;24.80;;
16270;SDS011;8243;49.048;8.396;2022-08-19T04:45:21;26.57;;;23.90;;
16270;SDS011;8243;49.048;8.396;2022-08-19T04:47:47;26.23;;;23.63;;
16270;SDS011;8243;49.048;8.396;2022-08-19T04:50:13;26.93;;;24.23;;
16270;SDS011;8243;49.048;8.396;2022-08-19T04:52:39;26.80;;;24.40;;
16270;SDS011;8243;49.048;8.396;2022-08-19T04:55:08;26.23;;;23.77;;
16270;SDS011;8243;49.048;8.396;2022-08-19T04:57:35;26.20;;;23.80;;
16270;SDS011;8243;49.048;8.396;2022-08-19T05:00:05;26.83;;;24.10;;
16270;SDS011;8243;49.048;8.396;2022-08-19T05:02:32;25.83;;;23.33;;
16270;SDS011;8243;49.048;8.396;2022-08-19T05:04:58;26.33;;;23.73;;
16270;SDS011;8243;49.048;8.396;2022-08-19T05:07:25;25.90;;;23.13;;
16270;SDS011;8243;49.048;8.396;2022-08-19T05:09:52;26.07;;;23.57;;
16270;SDS011;8243;49.048;8.396;2022-08-19T05:12:17;25.73;;;23.23;;
16270;SDS011;8243;49.048;8.396;2022-08-19T05:14:44;25.33;;;22.73;;
16270;SDS011;8243;49.048;8.396;2022-08-19T05:17:12;24.33;;;22.13;;
16270;SDS011;8243;49.048;8.396;2022-08-19T05:19:38;23.97;;;21.53;;
16270;SDS011;8243;49.048;8.396;2022-08-19T05:22:22;23.70;;;21.20;;
16270;SDS011;8243;49.048;8.396;2022-08-19T05:24:57;24.70;;;22.30;;
16270;SDS011;8243;49.048;8.396;2022-08-19T05:27:23;23.50;;;21.30;;
16270;SDS011;8243;49.048;8.396;2022-08-19T05:29:49;24.30;;;22.10;;
16270;SDS011;8243;49.048;8.396;2022-08-19T05:32:15;24.17;;;21.87;;
16270;SDS011;8243;49.048;8.396;2022-08-19T05:34:40;22.43;;;20.33;;
16270;SDS011;8243;49.048;8.396;2022-08-19T05:37:06;21.40;;;19.10;;
16270;SDS011;8243;49.048;8.396;2022-08-19T05:39:34;21.37;;;19.37;;
16270;SDS011;8243;49.048;8.396;2022-08-19T05:42:02;22.20;;;20.10;;
16270;SDS011;8243;49.048;8.396;2022-08-19T05:44:33;21.10;;;19.07;;
16270;SDS011;8243;49.048;8.396;2022-08-19T05:47:01;21.23;;;19.10;;
16270;SDS011;8243;49.048;8.396;2022-08-19T05:49:29;20.27;;;18.47;;
16270;SDS011;8243;49.048;8.396;2022-08-19T05:51:56;20.17;;;18.43;;
16270;SDS011;8243;49.048;8.396;2022-08-19T05:54:22;21.50;;;19.30;;
16270;SDS011;8243;49.048;8.396;2022-08-19T05:56:49;20.50;;;18.67;;
16270;SDS011;8243;49.048;8.396;2022-08-19T05:59:16;21.83;;;19.90;;
16270;SDS011;8243;49.048;8.396;2022-08-19T06:01:43;21.63;;;19.50;;
16270;SDS011;8243;49.048;8.396;2022-08-19T06:04:11;21.77;;;19.63;;
16270;SDS011;8243;49.048;8.396;2022-08-19T06:06:38;21.13;;;19.10;;
16270;SDS011;8243;49.048;8.396;2022-08-19T06:09:05;20.67;;;18.87;;
16270;SDS011;8243;49.048;8.396;2022-08-19T06:11:34;19.77;;;18.03;;
16270;SDS011;8243;49.048;8.396;2022-08-19T06:14:03;21.27;;;19.20;;
16270;SDS011;8243;49.048;8.396;2022-08-19T06:16:33;19.67;;;17.77;;
16270;SDS011;8243;49.048;8.396;2022-08-19T06:19:04;20.40;;;18.40;;
16270;SDS011;8243;49.048;8.396;2022-08-19T06:21:32;20.27;;;18.23;;
16270;SDS011;8243;49.048;8.396;2022-08-19T06:23:58;19.97;;;17.93;;
16270;SDS011;8243;49.048;8.396;2022-08-19T06:26:25;19.90;;;18.00;;
16270;SDS011;8243;49.048;8.396;2022-08-19T06:28:51;20.20;;;18.23;;
16270;SDS011;8243;49.048;8.396;2022-08-19T06:31:18;20.00;;;17.80;;
16270;SDS011;8243;49.048;8.396;2022-08-19T06:33:47;19.73;;;17.93;;
16270;SDS011;8243;49.048;8.396;2022-08-19T06:36:20;20.27;;;18.30;;
16270;SDS011;8243;49.048;8.396;2022-08-19T06:38:57;21.07;;;19.20;;
16270;SDS011;8243;49.048;8.396;2022-08-19T06:41:23;19.43;;;17.63;;
16270;SDS011;8243;49.048;8.396;2022-08-19T06:43:50;17.80;;;15.80;;
16270;SDS011;8243;49.048;8.396;2022-08-19T06:46:16;18.80;;;16.87;;
16270;SDS011;8243;49.048;8.396;2022-08-19T06:48:43;18.37;;;16.77;;
16270;SDS011;8243;49.048;8.396;2022-08-19T06:51:09;18.57;;;16.77;;
16270;SDS011;8243;49.048;8.396;2022-08-19T06:53:35;17.77;;;16.17;;
16270;SDS011;8243;49.048;8.396;2022-08-19T06:56:00;17.67;;;16.07;;
16270;SDS011;8243;49.048;8.396;2022-08-19T06:58:27;18.37;;;16.77;;
16270;SDS011;8243;49.048;8.396;2022-08-19T07:01:02;18.27;;;16.07;;
16270;SDS011;8243;49.048;8.396;2022-08-19T07:03:29;17.27;;;15.63;;
16270;SDS011;8243;49.048;8.396;2022-08-19T07:05:57;16.53;;;15.07;;
16270;SDS011;8243;49.048;8.396;2022-08-19T07:08:27;17.53;;;15.97;;
16270;SDS011;8243;49.048;8.396;2022-08-19T07:10:52;17.60;;;15.80;;
16270;SDS011;8243;49.048;8.396;2022-08-19T07:13:18;18.00;;;16.17;;
16270;SDS011;8243;49.048;8.396;2022-08-19T07:15:44;17.27;;;15.43;;
16270;SDS011;8243;49.048;8.396;2022-08-19T07:18:11;17.40;;;15.73;;
16270;SDS011;8243;49.048;8.396;2022-08-19T07:20:36;16.10;;;14.70;;
16270;SDS011;8243;49.048;8.396;2022-08-19T07:23:03;16.77;;;14.70;;
16270;SDS011;8243;49.048;8.396;2022-08-19T07:25:28;15.43;;;14.13;;
16270;SDS011;8243;49.048;8.396;2022-08-19T07:27:54;15.17;;;13.73;;
16270;SDS011;8243;49.048;8.396;2022-08-19T07:30:20;15.43;;;13.87;;
16270;SDS011;8243;49.048;8.396;2022-08-19T07:32:47;15.27;;;13.77;;
16270;SDS011;8243;49.048;8.396;2022-08-19T07:35:13;15.70;;;14.23;;
16270;SDS011;8243;49.048;8.396;2022-08-19T07:37:38;15.27;;;13.77;;
16270;SDS011;8243;49.048;8.396;2022-08-19T07:40:09;15.40;;;14.10;;
16270;SDS011;8243;49.048;8.396;2022-08-19T07:42:35;14.47;;;13.17;;
16270;SDS011;8243;49.048;8.396;2022-08-19T07:45:00;14.93;;;13.43;;
16270;SDS011;8243;49.048;8.396;2022-08-19T07:47:26;13.57;;;12.23;;
16270;SDS011;8243;49.048;8.396;2022-08-19T07:49:53;15.00;;;13.17;;
16270;SDS011;8243;49.048;8.396;2022-08-19T07:52:18;13.70;;;12.40;;
16270;SDS011;8243;49.048;8.396;2022-08-19T07:54:45;13.10;;;11.93;;
16270;SDS011;8243;49.048;8.396;2022-08-19T07:57:10;13.47;;;12.27;;
16270;SDS011;8243;49.048;8.396;2022-08-19T07:59:36;12.27;;;11.20;;
16270;SDS011;8243;49.048;8.396;2022-08-19T08:02:02;12.60;;;11.60;;
16270;SDS011;8243;49.048;8.396;2022-08-19T08:04:28;12.67;;;11.47;;
16270;SDS011;8243;49.048;8.396;2022-08-19T08:07:13;12.30;;;11.27;;
16270;SDS011;8243;49.048;8.396;2022-08-19T08:09:57;13.20;;;12.00;;
16270;SDS011;8243;49.048;8.396;2022-08-19T08:12:25;12.37;;;11.20;;
16270;SDS011;8243;49.048;8.396;2022-08-19T08:14:58;12.13;;;11.03;;
16270;SDS011;8243;49.048;8.396;2022-08-19T08:17:29;11.27;;;10.37;;
16270;SDS011;8243;49.048;8.396;2022-08-19T08:19:55;11.93;;;10.83;;
16270;SDS011;8243;49.048;8.396;2022-08-19T08:22:22;13.10;;;11.80;;
16270;SDS011;8243;49.048;8.396;2022-08-19T08:25:09;11.43;;;10.33;;
16270;SDS011;8243;49.048;8.396;2022-08-19T08:27:41;12.30;;;10.73;;
16270;SDS011;8243;49.048;8.396;2022-08-19T08:30:10;12.73;;;11.50;;
16270;SDS011;8243;49.048;8.396;2022-08-19T08:32:37;11.97;;;10.60;;
16270;SDS011;8243;49.048;8.396;2022-08-19T08:35:04;12.03;;;10.00;;
16270;SDS011;8243;49.048;8.396;2022-08-19T08:37:32;9.77;;;8.90;;
16270;SDS011;8243;49.048;8.396;2022-08-19T08:39:58;10.97;;;9.50;;
16270;SDS011;8243;49.048;8.396;2022-08-19T08:42:27;9.80;;;9.00;;
16270;SDS011;8243;49.048;8.396;2022-08-19T08:45:03;11.13;;;8.50;;
16270;SDS011;8243;49.048;8.396;2022-08-19T08:47:39;9.47;;;8.57;;
16270;SDS011;8243;49.048;8.396;2022-08-19T08:50:13;9.17;;;8.23;;
16270;SDS011;8243;49.048;8.396;2022-08-19T08:52:45;11.43;;;8.60;;
16270;SDS011;8243;49.048;8.396;2022-08-19T08:55:14;8.90;;;8.10;;
16270;SDS011;8243;49.048;8.396;2022-08-19T09:00:56;10.03;;;8.10;;
16270;SDS011;8243;49.048;8.396;2022-08-19T09:03:05;8.90;;;8.00;;
16270;SDS011;8243;49.048;8.396;2022-08-19T09:05:51;9.10;;;7.97;;
16270;SDS011;8243;49.048;8.396;2022-08-19T09:08:38;7.13;;;6.43;;
16270;SDS011;8243;49.048;8.396;2022-08-19T09:11:06;10.03;;;8.23;;
16270;SDS011;8243;49.048;8.396;2022-08-19T09:16:30;8.97;;;6.77;;
16270;SDS011;8243;49.048;8.396;2022-08-19T09:18:57;9.00;;;6.87;;
16270;SDS011;8243;49.048;8.396;2022-08-19T09:21:29;9.73;;;7.60;;
16270;SDS011;8243;49.048;8.396;2022-08-19T09:23:54;7.63;;;6.83;;
16270;SDS011;8243;49.048;8.396;2022-08-19T09:26:21;7.13;;;6.43;;
16270;SDS011;8243;49.048;8.396;2022-08-19T09:28:49;8.53;;;6.97;;
16270;SDS011;8243;49.048;8.396;2022-08-19T09:31:18;8.43;;;7.60;;
16270;SDS011;8243;49.048;8.396;2022-08-19T09:34:05;8.73;;;6.40;;
16270;SDS011;8243;49.048;8.396;2022-08-19T09:36:52;7.10;;;6.40;;
16270;SDS011;8243;49.048;8.396;2022-08-19T09:39:19;7.27;;;6.57;;
16270;SDS011;8243;49.048;8.396;2022-08-19T09:41:45;6.57;;;5.97;;
16270;SDS011;8243;49.048;8.396;2022-08-19T09:44:11;6.00;;;5.50;;
16270;SDS011;8243;49.048;8.396;2022-08-19T09:46:37;7.93;;;7.17;;
16270;SDS011;8243;49.048;8.396;2022-08-19T09:49:03;7.87;;;6.07;;
16270;SDS011;8243;49.048;8.396;2022-08-19T09:51:31;7.73;;;6.40;;
16270;SDS011;8243;49.048;8.396;2022-08-19T09:54:03;7.83;;;6.43;;
16270;SDS011;8243;49.048;8.396;2022-08-19T09:56:30;7.23;;;6.53;;
16270;SDS011;8243;49.048;8.396;2022-08-19T09:58:58;8.17;;;6.13;;
16270;SDS011;8243;49.048;8.396;2022-08-19T10:01:25;7.30;;;6.63;;
16270;SDS011;8243;49.048;8.396;2022-08-19T10:03:53;8.30;;;6.90;;
16270;SDS011;8243;49.048;8.396;2022-08-19T10:06:21;7.10;;;6.50;;
16270;SDS011;8243;49.048;8.396;2022-08-19T10:08:48;6.83;;;6.07;;
16270;SDS011;8243;49.048;8.396;2022-08-19T10:11:17;5.67;;;5.17;;
16270;SDS011;8243;49.048;8.396;2022-08-19T10:13:43;7.43;;;5.97;;
16270;SDS011;8243;49.048;8.396;2022-08-19T10:16:14;7.27;;;6.57;;
16270;SDS011;8243;49.048;8.396;2022-08-19T10:18:42;8.93;;;6.00;;
16270;SDS011;8243;49.048;8.396;2022-08-19T10:21:12;6.90;;;6.03;;
16270;SDS011;8243;49.048;8.396;2022-08-19T10:23:42;7.23;;;5.27;;
16270;SDS011;8243;49.048;8.396;2022-08-19T10:26:10;7.40;;;5.70;;
16270;SDS011;8243;49.048;8.396;2022-08-19T10:28:38;6.83;;;6.13;;
16270;SDS011;8243;49.048;8.396;2022-08-19T10:31:05;5.80;;;5.37;;
16270;SDS011;8243;49.048;8.396;2022-08-19T10:33:32;6.10;;;5.50;;
16270;SDS011;8243;49.048;8.396;2022-08-19T10:36:00;6.00;;;5.50;;
16270;SDS011;8243;49.048;8.396;2022-08-19T10:38:27;6.80;;;6.00;;
16270;SDS011;8243;49.048;8.396;2022-08-19T10:40:53;6.93;;;6.27;;
16270;SDS011;8243;49.048;8.396;2022-08-19T10:43:19;8.40;;;7.63;;
16270;SDS011;8243;49.048;8.396;2022-08-19T10:45:48;7.20;;;6.50;;
16270;SDS011;8243;49.048;8.396;2022-08-19T10:48:18;7.37;;;6.60;;
16270;SDS011;8243;49.048;8.396;2022-08-19T10:50:44;6.27;;;5.67;;
16270;SDS011;8243;49.048;8.396;2022-08-19T10:53:28;6.13;;;5.53;;
16270;SDS011;8243;49.048;8.396;2022-08-19T10:55:53;6.53;;;5.93;;
16270;SDS011;8243;49.048;8.396;2022-08-19T10:58:37;6.53;;;5.93;;
16270;SDS011;8243;49.048;8.396;2022-08-19T11:01:03;6.67;;;6.07;;
16270;SDS011;8243;49.048;8.396;2022-08-19T11:03:29;5.73;;;5.23;;
16270;SDS011;8243;49.048;8.396;2022-08-19T11:06:03;5.67;;;5.00;;
16270;SDS011;8243;49.048;8.396;2022-08-19T11:08:30;5.43;;;4.93;;
16270;SDS011;8243;49.048;8.396;2022-08-19T11:10:58;6.50;;;5.43;;
16270;SDS011;8243;49.048;8.396;2022-08-19T11:13:29;5.80;;;5.40;;
16270;SDS011;8243;49.048;8.396;2022-08-19T11:16:02;5.80;;;5.20;;
16270;SDS011;8243;49.048;8.396;2022-08-19T11:18:31;6.43;;;5.93;;
16270;SDS011;8243;49.048;8.396;2022-08-19T11:21:05;7.57;;;6.10;;
16270;SDS011;8243;49.048;8.396;2022-08-19T11:23:36;5.83;;;5.33;;
16270;SDS011;8243;49.048;8.396;2022-08-19T11:26:01;6.10;;;5.40;;
16270;SDS011;8243;49.048;8.396;2022-08-19T11:28:27;5.67;;;5.17;;
16270;SDS011;8243;49.048;8.396;2022-08-19T11:30:53;5.50;;;5.00;;
16270;SDS011;8243;49.048;8.396;2022-08-19T11:33:19;6.13;;;5.50;;
16270;SDS011;8243;49.048;8.396;2022-08-19T11:35:44;5.93;;;5.20;;
16270;SDS011;8243;49.048;8.396;2022-08-19T11:38:10;5.70;;;5.20;;
16270;SDS011;8243;49.048;8.396;2022-08-19T11:40:36;5.40;;;4.97;;
16270;SDS011;8243;49.048;8.396;2022-08-19T11:43:02;5.83;;;5.23;;
16270;SDS011;8243;49.048;8.396;2022-08-19T11:45:28;5.20;;;4.80;;
16270;SDS011;8243;49.048;8.396;2022-08-19T11:47:55;6.20;;;4.80;;
16270;SDS011;8243;49.048;8.396;2022-08-19T11:50:21;5.50;;;5.00;;
16270;SDS011;8243;49.048;8.396;2022-08-19T11:52:48;4.83;;;4.43;;
16270;SDS011;8243;49.048;8.396;2022-08-19T11:55:14;4.60;;;4.23;;
16270;SDS011;8243;49.048;8.396;2022-08-19T11:57:40;4.80;;;4.37;;
16270;SDS011;8243;49.048;8.396;2022-08-19T12:00:08;5.73;;;4.70;;
16270;SDS011;8243;49.048;8.396;2022-08-19T12:02:36;5.53;;;5.00;;
16270;SDS011;8243;49.048;8.396;2022-08-19T12:05:02;5.93;;;4.87;;
16270;SDS011;8243;49.048;8.396;2022-08-19T12:07:28;5.80;;;5.30;;
16270;SDS011;8243;49.048;8.396;2022-08-19T12:09:56;6.10;;;5.40;;
16270;SDS011;8243;49.048;8.396;2022-08-19T12:12:22;7.07;;;5.30;;
16270;SDS011;8243;49.048;8.396;2022-08-19T12:14:49;5.60;;;5.10;;
16270;SDS011;8243;49.048;8.396;2022-08-19T12:17:21;5.17;;;4.77;;
16270;SDS011;8243;49.048;8.396;2022-08-19T12:19:51;5.13;;;4.70;;
16270;SDS011;8243;49.048;8.396;2022-08-19T12:22:17;8.13;;;5.30;;
16270;SDS011;8243;49.048;8.396;2022-08-19T12:24:43;5.40;;;4.90;;
16270;SDS011;8243;49.048;8.396;2022-08-19T12:27:08;5.77;;;5.07;;
16270;SDS011;8243;49.048;8.396;2022-08-19T12:29:34;5.53;;;4.57;;
16270;SDS011;8243;49.048;8.396;2022-08-19T12:31:59;5.37;;;4.90;;
16270;SDS011;8243;49.048;8.396;2022-08-19T12:34:27;5.50;;;4.97;;
16270;SDS011;8243;49.048;8.396;2022-08-19T12:36:58;5.43;;;5.03;;
16270;SDS011;8243;49.048;8.396;2022-08-19T12:39:25;8.50;;;5.20;;
16270;SDS011;8243;49.048;8.396;2022-08-19T12:41:51;5.37;;;4.87;;
16270;SDS011;8243;49.048;8.396;2022-08-19T12:44:17;5.00;;;4.60;;
16270;SDS011;8243;49.048;8.396;2022-08-19T12:46:43;6.67;;;4.50;;
16270;SDS011;8243;49.048;8.396;2022-08-19T12:49:08;5.67;;;4.87;;
16270;SDS011;8243;49.048;8.396;2022-08-19T12:51:34;5.00;;;4.60;;
16270;SDS011;8243;49.048;8.396;2022-08-19T12:54:00;5.13;;;4.70;;
16270;SDS011;8243;49.048;8.396;2022-08-19T12:56:26;4.90;;;4.53;;
16270;SDS011;8243;49.048;8.396;2022-08-19T12:58:52;5.50;;;5.00;;
16270;SDS011;8243;49.048;8.396;2022-08-19T13:01:18;5.50;;;5.10;;
16270;SDS011;8243;49.048;8.396;2022-08-19T13:03:45;5.20;;;4.70;;
16270;SDS011;8243;49.048;8.396;2022-08-19T13:06:11;5.00;;;4.60;;
16270;SDS011;8243;49.048;8.396;2022-08-19T13:08:37;5.67;;;4.47;;
16270;SDS011;8243;49.048;8.396;2022-08-19T13:11:10;5.60;;;5.13;;
16270;SDS011;8243;49.048;8.396;2022-08-19T13:13:38;4.77;;;4.30;;
16270;SDS011;8243;49.048;8.396;2022-08-19T13:16:06;5.00;;;4.60;;
16270;SDS011;8243;49.048;8.396;2022-08-19T13:18:33;6.20;;;4.40;;
16270;SDS011;8243;49.048;8.396;2022-08-19T13:21:02;4.70;;;4.40;;
16270;SDS011;8243;49.048;8.396;2022-08-19T13:23:29;4.60;;;4.30;;
16270;SDS011;8243;49.048;8.396;2022-08-19T13:25:56;4.70;;;4.30;;
16270;SDS011;8243;49.048;8.396;2022-08-19T13:28:25;5.50;;;3.93;;
16270;SDS011;8243;49.048;8.396;2022-08-19T13:30:52;3.70;;;3.40;;
16270;SDS011;8243;49.048;8.396;2022-08-19T13:33:36;4.70;;;2.97;;
16270;SDS011;8243;49.048;8.396;2022-08-19T13:36:02;3.20;;;2.90;;
16270;SDS011;8243;49.048;8.396;2022-08-19T13:38:31;3.33;;;3.10;;
16270;SDS011;8243;49.048;8.396;2022-08-19T13:40:57;3.00;;;2.80;;
16270;SDS011;8243;49.048;8.396;2022-08-19T13:43:30;3.00;;;2.70;;
16270;SDS011;8243;49.048;8.396;2022-08-19T13:45:55;2.80;;;2.60;;
16270;SDS011;8243;49.048;8.396;2022-08-19T13:48:21;2.73;;;2.47;;
16270;SDS011;8243;49.048;8.396;2022-08-19T13:50:48;3.27;;;2.80;;
16270;SDS011;8243;49.048;8.396;2022-08-19T13:53:14;2.63;;;2.43;;
16270;SDS011;8243;49.048;8.396;2022-08-19T13:55:40;2.73;;;2.53;;
16270;SDS011;8243;49.048;8.396;2022-08-19T13:58:07;4.07;;;3.77;;
16270;SDS011;8243;49.048;8.396;2022-08-19T14:00:36;4.37;;;3.90;;
16270;SDS011;8243;49.048;8.396;2022-08-19T14:03:04;4.10;;;3.80;;
16270;SDS011;8243;49.048;8.396;2022-08-19T14:05:30;4.03;;;2.80;;
16270;SDS011;8243;49.048;8.396;2022-08-19T14:07:57;5.10;;;4.50;;
16270;SDS011;8243;49.048;8.396;2022-08-19T14:10:23;3.70;;;3.00;;
16270;SDS011;8243;49.048;8.396;2022-08-19T14:12:52;3.70;;;3.40;;
16270;SDS011;8243;49.048;8.396;2022-08-19T14:15:20;4.00;;;3.10;;
16270;SDS011;8243;49.048;8.396;2022-08-19T14:17:46;3.93;;;2.93;;
16270;SDS011;8243;49.048;8.396;2022-08-19T14:20:13;3.10;;;2.80;;
16270;SDS011;8243;49.048;8.396;2022-08-19T14:22:40;3.40;;;2.90;;
16270;SDS011;8243;49.048;8.396;2022-08-19T14:25:08;3.43;;;2.50;;
16270;SDS011;8243;49.048;8.396;2022-08-19T14:27:37;3.43;;;3.13;;
16270;SDS011;8243;49.048;8.396;2022-08-19T14:30:06;3.03;;;2.83;;
16270;SDS011;8243;49.048;8.396;2022-08-19T14:32:34;3.40;;;2.73;;
16270;SDS011;8243;49.048;8.396;2022-08-19T14:35:00;3.37;;;3.17;;
16270;SDS011;8243;49.048;8.396;2022-08-19T14:37:26;3.30;;;3.00;;
16270;SDS011;8243;49.048;8.396;2022-08-19T14:39:52;3.23;;;2.90;;
16270;SDS011;8243;49.048;8.396;2022-08-19T14:42:18;4.43;;;2.97;;
16270;SDS011;8243;49.048;8.396;2022-08-19T14:44:43;7.63;;;3.10;;
16270;SDS011;8243;49.048;8.396;2022-08-19T14:47:09;3.77;;;3.47;;
16270;SDS011;8243;49.048;8.396;2022-08-19T14:49:35;3.70;;;2.83;;
16270;SDS011;8243;49.048;8.396;2022-08-19T14:52:01;4.10;;;3.80;;
16270;SDS011;8243;49.048;8.396;2022-08-19T14:54:28;3.83;;;3.40;;
16270;SDS011;8243;49.048;8.396;2022-08-19T14:56:54;3.93;;;3.67;;
16270;SDS011;8243;49.048;8.396;2022-08-19T14:59:19;5.23;;;4.83;;
16270;SDS011;8243;49.048;8.396;2022-08-19T15:01:45;4.53;;;3.67;;
16270;SDS011;8243;49.048;8.396;2022-08-19T15:04:10;4.00;;;3.50;;
16270;SDS011;8243;49.048;8.396;2022-08-19T15:06:36;4.20;;;3.67;;